Time;durP1;ratioP1;P1;durP2;ratioP2;P2;SDS_P1;SDS_P2;PMS_P1;PMS_P2;Temp;Humidity;BMP_temperature;BMP_pressure;BME280_temperature;BME280_humidity;BME280_pressure;Samples;Min_cycle;Max_cycle;Signal;HPM_P1;HPM_P2
2021/12/26 00:02:11;;;;;;;10.90;3.25;;;26.10;99.90;;;;;;5051898;28;20197;-75
2021/12/26 00:04:42;;;;;;;10.13;2.88;;;26.10;99.90;;;;;;5047920;28;20237;-75
2021/12/26 00:07:13;;;;;;;10.40;2.75;;;26.30;99.90;;;;;;5050371;28;20223;-75
2021/12/26 00:09:45;;;;;;;10.35;2.88;;;26.00;99.90;;;;;;5051458;28;20234;-74
2021/12/26 00:12:16;;;;;;;13.10;3.00;;;25.80;99.90;;;;;;5052531;28;20186;-75
2021/12/26 00:14:47;;;;;;;12.57;3.00;;;25.70;99.90;;;;;;5057084;28;20192;-75
2021/12/26 00:17:17;;;;;;;11.35;3.35;;;25.60;99.90;;;;;;5058803;28;20201;-75
2021/12/26 00:19:51;;;;;;;10.40;3.13;;;25.50;99.90;;;;;;5046666;28;20676;-75
2021/12/26 00:22:21;;;;;;;10.25;3.00;;;25.70;99.90;;;;;;5051924;28;20193;-74
2021/12/26 00:24:54;;;;;;;11.07;3.22;;;25.90;99.90;;;;;;5051869;28;20185;-75
2021/12/26 00:27:25;;;;;;;9.65;2.83;;;25.90;99.90;;;;;;5051571;28;20210;-73
2021/12/26 00:29:56;;;;;;;8.80;2.90;;;26.20;99.90;;;;;;5051993;28;20641;-75
2021/12/26 00:32:29;;;;;;;10.38;2.70;;;26.40;99.90;;;;;;5044912;28;20191;-74
2021/12/26 00:35:00;;;;;;;9.50;2.50;;;26.40;99.90;;;;;;5051453;28;20185;-76
2021/12/26 00:37:30;;;;;;;8.00;2.45;;;26.50;99.90;;;;;;5053927;28;20202;-74
2021/12/26 00:40:10;;;;;;;9.30;2.42;;;26.40;99.90;;;;;;5055643;28;20189;-76
2021/12/26 00:42:41;;;;;;;9.65;2.75;;;26.70;99.90;;;;;;5055055;28;20637;-75
2021/12/26 00:45:13;;;;;;;8.93;3.10;;;26.70;99.90;;;;;;5055328;28;20214;-75
2021/12/26 00:47:45;;;;;;;10.60;2.80;;;26.80;99.90;;;;;;5054865;28;20271;-76
2021/12/26 00:50:18;;;;;;;9.40;2.78;;;26.50;99.90;;;;;;5055724;28;20198;-75
2021/12/26 00:52:49;;;;;;;6.65;2.35;;;26.50;99.90;;;;;;5054971;28;20205;-75
2021/12/26 00:55:22;;;;;;;9.90;3.00;;;26.90;99.90;;;;;;5055713;28;20186;-74
2021/12/26 00:57:53;;;;;;;8.73;2.30;;;27.10;99.90;;;;;;5055581;28;20194;-75
2021/12/26 01:00:28;;;;;;;9.15;2.42;;;27.30;99.90;;;;;;5055424;28;20569;-74
2021/12/26 01:03:00;;;;;;;9.57;2.55;;;27.30;99.90;;;;;;5054933;28;20194;-75
2021/12/26 01:05:31;;;;;;;7.32;2.10;;;27.10;99.90;;;;;;5055291;28;20242;-74
2021/12/26 01:08:03;;;;;;;7.82;2.60;;;27.30;99.90;;;;;;5054049;28;20205;-74
2021/12/26 01:10:38;;;;;;;7.65;2.45;;;27.30;99.90;;;;;;5054255;28;20696;-74
2021/12/26 01:13:15;;;;;;;7.35;2.50;;;27.20;99.90;;;;;;5055791;28;20247;-74
2021/12/26 01:15:53;;;;;;;10.82;2.80;;;27.20;99.90;;;;;;5055564;28;20276;-75
2021/12/26 01:18:24;;;;;;;10.50;2.67;;;27.00;99.90;;;;;;5050448;28;20261;-75
2021/12/26 01:20:59;;;;;;;7.90;2.03;;;26.90;99.90;;;;;;5056064;28;20204;-74
2021/12/26 01:23:30;;;;;;;9.15;2.40;;;27.00;99.90;;;;;;5054110;28;20255;-74
2021/12/26 01:26:03;;;;;;;7.32;2.40;;;27.00;99.90;;;;;;5054967;28;20218;-74
2021/12/26 01:28:34;;;;;;;5.47;2.50;;;27.10;99.90;;;;;;5047744;28;20193;-75
2021/12/26 01:31:05;;;;;;;7.05;2.22;;;27.30;99.90;;;;;;5054819;28;20189;-75
2021/12/26 01:33:36;;;;;;;5.93;2.05;;;27.30;99.90;;;;;;5048074;28;20193;-75
2021/12/26 01:36:07;;;;;;;5.50;2.05;;;27.50;99.90;;;;;;5051282;28;20185;-75
2021/12/26 01:38:38;;;;;;;7.55;2.40;;;27.60;99.90;;;;;;5046387;28;20182;-75
2021/12/26 01:41:10;;;;;;;8.05;2.30;;;27.20;99.90;;;;;;5054581;28;20236;-74
2021/12/26 01:43:45;;;;;;;8.52;2.10;;;27.00;99.90;;;;;;5055420;28;20218;-74
2021/12/26 01:46:16;;;;;;;8.02;2.00;;;26.90;99.90;;;;;;5054261;28;20219;-74
2021/12/26 01:48:47;;;;;;;6.25;1.95;;;27.00;99.90;;;;;;5045478;28;20186;-74
2021/12/26 01:51:18;;;;;;;7.15;2.20;;;26.90;99.90;;;;;;5054638;28;20205;-74
2021/12/26 01:53:48;;;;;;;8.60;2.17;;;26.80;99.90;;;;;;5054364;28;20277;-75
2021/12/26 01:56:21;;;;;;;6.82;2.13;;;26.80;99.90;;;;;;5053928;28;20243;-75
2021/12/26 01:58:52;;;;;;;9.52;2.60;;;26.70;99.90;;;;;;5053190;28;20191;-75
2021/12/26 02:01:23;;;;;;;7.13;2.10;;;26.50;99.90;;;;;;5053397;28;20656;-74
2021/12/26 02:03:53;;;;;;;7.15;2.58;;;26.40;99.90;;;;;;5054166;28;20243;-75
2021/12/26 02:06:24;;;;;;;9.20;2.60;;;26.30;99.90;;;;;;5054268;28;20209;-74
2021/12/26 02:08:55;;;;;;;8.85;2.70;;;26.30;99.90;;;;;;5053420;28;20232;-76
2021/12/26 02:11:27;;;;;;;6.47;2.25;;;26.20;99.90;;;;;;5055892;28;20220;-75
2021/12/26 02:13:58;;;;;;;10.35;2.40;;;26.10;99.90;;;;;;5057052;28;20224;-75
2021/12/26 02:16:29;;;;;;;7.75;2.53;;;26.00;99.90;;;;;;5052602;28;20223;-76
2021/12/26 02:19:09;;;;;;;12.00;2.50;;;25.90;99.90;;;;;;5051530;28;20200;-75
2021/12/26 02:22:00;;;;;;;6.93;2.50;;;25.90;99.90;;;;;;5054818;28;20750;-75
2021/12/26 02:24:36;;;;;;;10.57;2.80;;;25.80;99.90;;;;;;5054138;28;20232;-75
2021/12/26 02:29:53;;;;;;;5.22;2.13;;;25.80;99.90;;;;;;5054028;28;20722;-75
2021/12/26 02:32:24;;;;;;;10.48;2.80;;;25.90;99.90;;;;;;5052948;28;20186;-75
2021/12/26 02:34:55;;;;;;;8.52;2.55;;;25.80;99.90;;;;;;5046358;28;20239;-73
2021/12/26 02:37:27;;;;;;;7.53;2.40;;;26.10;99.90;;;;;;5053821;28;20190;-74
2021/12/26 02:39:58;;;;;;;6.85;2.42;;;26.20;99.90;;;;;;5053227;28;20185;-75
2021/12/26 02:42:29;;;;;;;10.35;2.58;;;26.40;99.90;;;;;;5053084;28;20186;-75
2021/12/26 02:44:59;;;;;;;9.82;2.55;;;26.30;99.90;;;;;;5053226;28;20189;-75
2021/12/26 02:47:38;;;;;;;9.65;2.75;;;26.10;99.90;;;;;;5053062;28;20225;-74
2021/12/26 02:50:12;;;;;;;7.97;2.67;;;26.00;99.90;;;;;;5053733;28;20194;-75
2021/12/26 02:52:45;;;;;;;11.05;2.67;;;26.00;99.90;;;;;;5053706;28;20193;-75
2021/12/26 02:55:17;;;;;;;11.82;2.72;;;26.10;99.90;;;;;;5033805;28;20264;-75
2021/12/26 02:57:51;;;;;;;10.07;2.45;;;26.10;99.90;;;;;;5051335;28;20189;-74
2021/12/26 03:00:26;;;;;;;8.60;2.60;;;26.10;99.90;;;;;;5052869;28;20201;-75
2021/12/26 03:02:59;;;;;;;8.40;2.70;;;26.30;99.90;;;;;;5053090;28;20193;-75
2021/12/26 03:05:40;;;;;;;9.90;2.50;;;26.40;99.90;;;;;;5053190;28;20205;-74
2021/12/26 03:25:45;;;;;;;10.30;2.67;;;25.40;99.90;;;;;;4867315;28;20245;-74
2021/12/26 03:28:17;;;;;;;9.48;2.80;;;25.30;99.90;;;;;;4990725;28;20218;-74
2021/12/26 03:30:49;;;;;;;6.95;2.50;;;25.30;99.90;;;;;;5050487;28;20185;-74
2021/12/26 03:33:19;;;;;;;8.80;2.50;;;25.20;99.90;;;;;;5052216;28;20747;-74
2021/12/26 03:35:50;;;;;;;8.35;2.38;;;25.20;99.90;;;;;;5051452;28;20193;-74
2021/12/26 03:38:23;;;;;;;7.43;2.50;;;25.20;99.90;;;;;;5053215;28;20263;-75
2021/12/26 03:40:57;;;;;;;7.05;2.40;;;25.10;99.90;;;;;;5045302;28;20202;-74
2021/12/26 03:43:28;;;;;;;8.98;2.53;;;24.90;99.90;;;;;;5050260;28;20271;-75
2021/12/26 03:45:59;;;;;;;7.22;2.35;;;24.80;99.90;;;;;;5051201;28;20204;-74
2021/12/26 03:48:30;;;;;;;7.10;2.60;;;24.80;99.90;;;;;;5051737;28;20258;-74
2021/12/26 03:51:03;;;;;;;7.40;2.75;;;24.70;99.90;;;;;;5053102;28;20248;-74
2021/12/26 03:53:34;;;;;;;8.85;2.55;;;24.60;99.90;;;;;;5053267;28;20645;-74
2021/12/26 03:56:07;;;;;;;8.80;2.88;;;24.60;99.90;;;;;;5049284;28;20239;-74
2021/12/26 03:58:38;;;;;;;11.15;3.13;;;24.60;99.90;;;;;;5052278;28;20200;-74
2021/12/26 04:01:12;;;;;;;9.18;2.92;;;24.60;99.90;;;;;;5052919;28;20201;-75
2021/12/26 04:03:45;;;;;;;7.68;3.20;;;24.50;99.90;;;;;;5052659;28;20201;-74
2021/12/26 04:06:15;;;;;;;7.20;3.13;;;24.50;99.90;;;;;;5052345;28;20278;-75
2021/12/26 04:08:49;;;;;;;11.13;3.60;;;24.60;99.90;;;;;;5052012;28;20283;-74
2021/12/26 04:11:25;;;;;;;14.88;3.85;;;24.50;99.90;;;;;;5054407;28;20225;-74
2021/12/26 04:13:56;;;;;;;9.30;3.58;;;24.50;99.90;;;;;;5046718;28;20288;-74
2021/12/26 04:16:27;;;;;;;12.15;3.60;;;24.40;99.90;;;;;;5056725;28;20193;-74
2021/12/26 04:18:58;;;;;;;12.63;3.53;;;24.40;99.90;;;;;;5056297;28;20220;-74
2021/12/26 04:21:28;;;;;;;11.23;3.53;;;24.40;99.90;;;;;;5056444;28;20200;-75
2021/12/26 04:23:59;;;;;;;13.65;4.25;;;24.50;99.90;;;;;;5056304;28;20650;-74
2021/12/26 04:26:32;;;;;;;15.82;4.25;;;24.50;99.90;;;;;;5041278;28;20198;-74
2021/12/26 04:29:03;;;;;;;11.57;3.83;;;24.60;99.90;;;;;;5055008;28;20213;-74
2021/12/26 04:31:34;;;;;;;17.35;4.43;;;24.60;99.90;;;;;;5055830;28;20190;-74
2021/12/26 04:34:04;;;;;;;17.67;4.28;;;24.70;99.90;;;;;;5055759;28;20190;-74
2021/12/26 04:36:35;;;;;;;18.75;4.50;;;24.60;99.90;;;;;;5055938;28;20197;-75
2021/12/26 04:39:07;;;;;;;16.67;3.90;;;24.60;99.90;;;;;;5055684;28;20687;-74
2021/12/26 04:41:39;;;;;;;16.55;3.85;;;24.60;99.90;;;;;;5055573;28;20229;-75
2021/12/26 04:44:10;;;;;;;17.92;4.18;;;24.80;99.90;;;;;;5052994;28;20554;-75
2021/12/26 04:46:40;;;;;;;15.98;4.47;;;24.80;99.90;;;;;;5055919;28;20190;-76
2021/12/26 04:49:11;;;;;;;16.45;4.07;;;24.80;99.90;;;;;;5055582;28;20193;-75
2021/12/26 04:51:42;;;;;;;15.80;3.63;;;24.80;99.90;;;;;;5048822;28;20698;-75
2021/12/26 04:54:15;;;;;;;14.35;3.92;;;24.80;99.90;;;;;;5054786;28;20209;-75
2021/12/26 04:56:48;;;;;;;16.33;3.85;;;24.80;99.90;;;;;;5054656;28;20189;-75
2021/12/26 04:59:18;;;;;;;15.38;4.07;;;24.70;99.90;;;;;;5055822;28;20650;-77
2021/12/26 05:01:49;;;;;;;22.13;4.30;;;24.60;99.90;;;;;;5055240;28;20239;-74
2021/12/26 05:04:20;;;;;;;25.27;4.63;;;24.60;99.90;;;;;;5055653;28;20190;-74
2021/12/26 05:06:54;;;;;;;21.15;4.68;;;24.50;99.90;;;;;;5055764;28;20201;-75
2021/12/26 05:09:25;;;;;;;20.45;4.70;;;24.40;99.90;;;;;;5055329;28;20193;-74
2021/12/26 05:12:00;;;;;;;20.55;4.38;;;24.40;99.90;;;;;;5055192;28;20186;-74
2021/12/26 05:14:30;;;;;;;19.55;4.68;;;24.30;99.90;;;;;;5055281;28;20262;-74
2021/12/26 05:17:01;;;;;;;23.20;5.10;;;24.30;99.90;;;;;;5055442;28;20198;-74
2021/12/26 05:19:32;;;;;;;16.15;4.80;;;24.30;99.90;;;;;;5055803;28;20284;-74
2021/12/26 05:22:03;;;;;;;20.98;4.40;;;24.20;99.90;;;;;;5054451;28;20622;-74
2021/12/26 05:24:33;;;;;;;21.38;4.95;;;24.20;99.90;;;;;;5055109;28;20597;-75
2021/12/26 05:27:06;;;;;;;24.60;5.20;;;24.10;99.90;;;;;;5043434;28;20541;-75
2021/12/26 05:29:39;;;;;;;15.68;4.63;;;24.10;99.90;;;;;;5055340;28;20605;-74
2021/12/26 05:32:10;;;;;;;25.33;5.57;;;24.10;99.90;;;;;;5058865;28;20220;-73
2021/12/26 05:34:41;;;;;;;27.48;5.50;;;24.10;99.90;;;;;;5061025;28;20193;-73
2021/12/26 05:37:11;;;;;;;23.98;5.40;;;24.00;99.90;;;;;;5053697;28;20248;-75
2021/12/26 05:39:42;;;;;;;25.05;5.72;;;24.00;99.90;;;;;;5050031;28;20193;-74
2021/12/26 05:42:18;;;;;;;21.10;5.45;;;24.00;99.90;;;;;;5055138;28;20229;-74
2021/12/26 05:44:50;;;;;;;21.38;6.22;;;24.00;99.90;;;;;;5054706;28;20280;-74
2021/12/26 05:47:20;;;;;;;25.02;5.90;;;23.90;99.90;;;;;;5054564;28;20232;-74
2021/12/26 05:49:51;;;;;;;21.35;6.00;;;23.90;99.90;;;;;;5055215;28;20247;-76
2021/12/26 05:52:24;;;;;;;25.38;6.80;;;23.80;99.90;;;;;;5054409;28;20198;-74
2021/12/26 05:54:56;;;;;;;24.08;7.72;;;23.70;99.90;;;;;;5045898;28;20182;-73
2021/12/26 05:57:28;;;;;;;24.20;7.00;;;23.60;99.90;;;;;;5050052;28;20220;-74
2021/12/26 05:59:59;;;;;;;20.92;6.32;;;23.50;99.90;;;;;;5055101;28;20243;-74
2021/12/26 06:02:30;;;;;;;24.55;7.03;;;23.40;99.90;;;;;;5054887;28;20189;-73
2021/12/26 06:05:03;;;;;;;23.85;6.97;;;23.30;99.90;;;;;;5054883;28;20723;-73
2021/12/26 06:07:34;;;;;;;19.92;6.70;;;23.30;99.90;;;;;;5053681;28;20214;-75
2021/12/26 06:10:07;;;;;;;18.85;7.00;;;23.20;99.90;;;;;;5053984;28;20233;-73
2021/12/26 06:12:42;;;;;;;17.08;5.90;;;23.20;99.90;;;;;;5051974;28;20216;-74
2021/12/26 06:15:14;;;;;;;16.02;6.40;;;23.20;99.90;;;;;;5052934;28;20197;-74
2021/12/26 06:17:44;;;;;;;18.02;5.85;;;23.30;99.90;;;;;;5052953;28;20224;-74
2021/12/26 06:20:15;;;;;;;15.38;4.97;;;23.30;99.90;;;;;;5054413;28;20193;-75
2021/12/26 06:22:49;;;;;;;11.63;4.32;;;23.30;99.90;;;;;;5053433;28;20645;-75
2021/12/26 06:25:20;;;;;;;15.38;4.50;;;23.10;99.90;;;;;;5054190;28;20196;-74
2021/12/26 06:27:53;;;;;;;13.20;4.47;;;23.00;99.90;;;;;;5054334;28;20218;-74
2021/12/26 06:30:23;;;;;;;14.35;4.20;;;22.80;99.90;;;;;;5054469;28;20190;-75
2021/12/26 06:32:54;;;;;;;11.57;3.55;;;22.70;99.90;;;;;;5045625;28;20186;-74
2021/12/26 06:35:25;;;;;;;10.80;3.42;;;22.50;99.90;;;;;;5050286;28;20255;-74
2021/12/26 06:37:55;;;;;;;8.60;3.10;;;22.40;99.90;;;;;;5053591;28;20190;-74
2021/12/26 06:40:31;;;;;;;11.45;2.97;;;22.40;99.90;;;;;;5037612;28;20185;-76
2021/12/26 06:43:05;;;;;;;8.07;2.83;;;22.20;99.90;;;;;;5054075;28;20558;-74
2021/12/26 06:45:36;;;;;;;5.03;2.15;;;22.10;99.90;;;;;;5054058;28;20267;-74
2021/12/26 06:48:08;;;;;;;6.75;2.22;;;22.10;99.90;;;;;;5053657;28;20297;-74
2021/12/26 06:50:42;;;;;;;6.93;1.88;;;22.00;99.90;;;;;;5049085;28;20193;-74
2021/12/26 06:53:13;;;;;;;5.57;1.77;;;21.90;99.90;;;;;;5053355;28;20197;-75
2021/12/26 06:55:45;;;;;;;4.43;1.65;;;21.80;99.90;;;;;;5053443;28;20197;-78
2021/12/26 06:58:18;;;;;;;3.28;1.70;;;21.70;99.90;;;;;;5053684;28;20190;-76
2021/12/26 07:00:49;;;;;;;4.68;1.80;;;21.60;99.90;;;;;;5053612;28;20182;-75
2021/12/26 07:03:19;;;;;;;3.58;1.60;;;21.60;99.90;;;;;;5053969;28;20193;-75
2021/12/26 07:05:50;;;;;;;3.75;1.40;;;21.60;99.90;;;;;;5051895;28;20205;-74
2021/12/26 07:08:21;;;;;;;1.95;1.30;;;21.60;99.90;;;;;;5053806;28;20217;-74
2021/12/26 07:10:51;;;;;;;1.88;1.10;;;21.60;99.90;;;;;;5052409;28;20587;-75
2021/12/26 07:13:24;;;;;;;2.50;1.27;;;21.50;99.90;;;;;;5053420;28;20221;-74
2021/12/26 07:15:55;;;;;;;2.70;1.13;;;21.60;99.90;;;;;;5053678;28;20189;-75
2021/12/26 07:18:26;;;;;;;3.35;1.10;;;21.50;99.90;;;;;;5053154;28;20573;-76
2021/12/26 07:20:56;;;;;;;4.45;1.08;;;21.60;99.90;;;;;;5053376;28;20642;-74
2021/12/26 07:23:27;;;;;;;5.90;0.95;;;21.60;99.90;;;;;;5050010;28;20567;-75
2021/12/26 07:25:58;;;;;;;2.38;0.90;;;21.60;99.90;;;;;;5049792;28;20244;-74
2021/12/26 07:28:30;;;;;;;4.78;1.08;;;21.70;99.90;;;;;;5052843;28;20213;-76
2021/12/26 07:31:01;;;;;;;4.03;1.10;;;21.70;99.90;;;;;;5052715;28;20195;-75
2021/12/26 07:33:32;;;;;;;7.65;1.10;;;21.70;99.90;;;;;;5053219;28;20196;-75
2021/12/26 07:36:03;;;;;;;6.82;1.55;;;21.60;99.90;;;;;;5048971;28;20193;-75
2021/12/26 07:38:33;;;;;;;8.13;1.60;;;21.60;99.90;;;;;;5052557;28;20649;-75
2021/12/26 07:41:04;;;;;;;7.35;1.70;;;21.60;99.90;;;;;;5058255;28;20217;-74
2021/12/26 07:43:38;;;;;;;7.30;1.85;;;21.50;99.90;;;;;;5033750;28;20194;-74
2021/12/26 07:46:18;;;;;;;3.97;0.93;;;21.50;99.90;;;;;;5051710;28;20566;-75
2021/12/26 07:48:48;;;;;;;3.22;0.80;;;21.40;99.90;;;;;;5049005;28;20247;-74
2021/12/26 07:51:20;;;;;;;4.25;0.90;;;21.40;99.90;;;;;;5050099;28;20192;-75
2021/12/26 07:53:52;;;;;;;7.45;1.25;;;21.40;99.90;;;;;;5047413;28;20237;-75
2021/12/26 07:56:23;;;;;;;6.68;1.13;;;21.30;99.90;;;;;;5051888;28;20646;-75
2021/12/26 07:58:55;;;;;;;8.18;1.20;;;21.30;99.90;;;;;;5052406;28;20193;-75
2021/12/26 08:01:28;;;;;;;5.65;1.02;;;21.30;99.90;;;;;;5049691;28;20197;-77
2021/12/26 08:04:01;;;;;;;5.47;1.10;;;21.30;99.90;;;;;;5051926;28;20197;-75
2021/12/26 08:06:33;;;;;;;8.55;1.83;;;21.30;99.90;;;;;;5049441;28;20282;-75
2021/12/26 08:09:05;;;;;;;7.75;1.80;;;21.20;99.90;;;;;;5047352;28;20221;-75
2021/12/26 08:11:36;;;;;;;7.78;1.35;;;21.20;99.90;;;;;;5049537;28;20252;-75
2021/12/26 08:14:09;;;;;;;6.15;1.00;;;21.20;99.90;;;;;;5051173;28;20204;-75
2021/12/26 08:16:40;;;;;;;7.85;1.55;;;21.20;99.90;;;;;;5051528;28;20205;-75
2021/12/26 08:19:10;;;;;;;6.28;1.10;;;21.10;99.90;;;;;;5052778;28;20197;-75
2021/12/26 08:21:44;;;;;;;8.30;1.42;;;21.10;99.90;;;;;;5044650;28;20551;-75
2021/12/26 08:24:18;;;;;;;7.43;1.38;;;21.10;99.90;;;;;;5050708;28;20186;-75
2021/12/26 08:26:51;;;;;;;6.97;1.70;;;21.10;99.90;;;;;;5052624;28;20662;-75
2021/12/26 08:29:24;;;;;;;9.55;1.50;;;21.10;99.90;;;;;;5051995;28;20707;-75
2021/12/26 08:31:57;;;;;;;8.70;1.83;;;21.10;99.90;;;;;;5052498;28;20194;-75
2021/12/26 08:34:27;;;;;;;7.50;1.77;;;21.10;99.90;;;;;;5048826;28;20201;-74
2021/12/26 08:37:02;;;;;;;6.22;1.45;;;21.00;99.90;;;;;;5049156;28;20205;-75
2021/12/26 08:39:35;;;;;;;10.32;2.08;;;21.00;99.90;;;;;;5052751;28;20228;-74
2021/12/26 08:42:07;;;;;;;10.30;1.52;;;21.00;99.90;;;;;;5050419;28;20222;-74
2021/12/26 08:44:40;;;;;;;8.07;1.25;;;20.90;99.90;;;;;;5050904;28;20607;-73
2021/12/26 08:47:12;;;;;;;9.82;1.50;;;20.90;99.90;;;;;;5052322;28;20585;-74
2021/12/26 08:49:45;;;;;;;9.25;1.40;;;20.90;99.90;;;;;;5052244;28;20214;-74
2021/12/26 08:52:16;;;;;;;4.50;1.27;;;20.90;99.90;;;;;;5052287;28;20600;-73
2021/12/26 08:54:50;;;;;;;9.57;1.70;;;20.80;99.90;;;;;;5052434;28;20612;-73
2021/12/26 08:57:20;;;;;;;11.80;1.50;;;20.90;99.90;;;;;;5054207;28;20186;-73
2021/12/26 08:59:53;;;;;;;9.75;1.30;;;20.80;99.90;;;;;;5050447;28;20201;-74
2021/12/26 09:02:27;;;;;;;13.30;1.60;;;20.80;99.90;;;;;;5055427;28;20201;-74
2021/12/26 09:04:58;;;;;;;12.18;1.90;;;20.90;99.90;;;;;;5053766;28;20193;-75
2021/12/26 09:07:28;;;;;;;9.95;1.73;;;20.90;99.90;;;;;;5049952;28;20237;-74
2021/12/26 09:10:00;;;;;;;8.55;1.60;;;20.90;99.90;;;;;;5051839;28;20275;-75
2021/12/26 09:12:31;;;;;;;8.68;1.50;;;20.90;99.90;;;;;;5041387;28;20195;-74
2021/12/26 09:15:04;;;;;;;6.78;1.35;;;20.90;99.90;;;;;;5037758;28;20186;-74
2021/12/26 09:17:35;;;;;;;7.10;1.40;;;20.90;99.90;;;;;;5049860;28;20189;-74
2021/12/26 09:20:06;;;;;;;9.32;1.30;;;20.90;99.90;;;;;;5055413;28;20194;-74
2021/12/26 09:22:40;;;;;;;11.82;1.58;;;21.00;99.90;;;;;;5055845;28;20198;-74
2021/12/26 09:25:12;;;;;;;6.22;1.40;;;21.00;99.90;;;;;;5055324;28;20225;-74
2021/12/26 09:27:42;;;;;;;7.95;1.30;;;21.00;99.90;;;;;;5055299;28;20555;-74
2021/12/26 09:30:16;;;;;;;10.05;2.15;;;21.00;99.90;;;;;;5042250;28;20700;-75
2021/12/26 09:32:47;;;;;;;10.25;1.45;;;21.00;99.90;;;;;;5041698;28;20597;-74
2021/12/26 09:35:18;;;;;;;11.38;1.75;;;21.00;99.90;;;;;;5054243;28;20216;-74
2021/12/26 09:37:49;;;;;;;10.85;1.77;;;21.00;99.90;;;;;;5055251;28;20251;-75
2021/12/26 09:40:20;;;;;;;9.68;1.33;;;21.00;99.90;;;;;;5054590;28;20225;-74
2021/12/26 09:42:56;;;;;;;7.40;1.30;;;21.10;99.90;;;;;;5055232;28;20660;-75
2021/12/26 09:45:28;;;;;;;12.25;1.45;;;21.10;99.90;;;;;;5054170;28;20197;-74
2021/12/26 09:47:59;;;;;;;7.13;1.17;;;21.10;99.90;;;;;;5051465;28;20543;-75
2021/12/26 09:50:31;;;;;;;8.27;1.42;;;21.10;99.90;;;;;;5054943;28;20210;-74
2021/12/26 09:53:02;;;;;;;5.95;1.08;;;21.10;99.90;;;;;;5054865;28;20186;-75
2021/12/26 09:55:34;;;;;;;8.77;1.60;;;21.10;99.90;;;;;;5054909;28;20639;-73
2021/12/26 09:58:10;;;;;;;11.35;1.38;;;21.00;99.90;;;;;;5054798;28;20626;-75
2021/12/26 10:00:46;;;;;;;5.07;1.15;;;21.00;99.90;;;;;;5054609;28;20193;-74
2021/12/26 10:03:21;;;;;;;5.97;1.00;;;21.10;99.90;;;;;;5055240;28;20225;-74
2021/12/26 10:06:13;;;;;;;6.47;1.30;;;21.10;99.90;;;;;;5054269;28;20200;-74
2021/12/26 10:08:58;;;;;;;8.85;1.27;;;21.20;99.90;;;;;;5054082;28;20693;-75
2021/12/26 10:11:30;;;;;;;6.85;0.98;;;21.20;99.90;;;;;;5054868;28;20237;-74
2021/12/26 10:14:02;;;;;;;4.88;0.90;;;21.30;99.90;;;;;;5054348;28;20190;-74
2021/12/26 10:16:40;;;;;;;4.97;0.90;;;21.40;99.90;;;;;;5054383;28;20186;-74
2021/12/26 10:19:14;;;;;;;7.88;1.05;;;21.40;99.90;;;;;;5054480;28;20185;-74
2021/12/26 10:21:47;;;;;;;8.18;1.15;;;21.40;99.90;;;;;;5054310;28;20190;-74
2021/12/26 10:24:22;;;;;;;6.78;0.95;;;21.40;99.90;;;;;;5054282;28;20224;-74
2021/12/26 10:26:54;;;;;;;6.32;1.00;;;21.40;99.90;;;;;;5054598;28;20190;-74
2021/12/26 10:29:32;;;;;;;7.75;1.08;;;21.40;99.90;;;;;;5053658;28;20213;-74
2021/12/26 10:32:10;;;;;;;4.68;1.15;;;21.30;99.90;;;;;;5054513;28;20193;-74
2021/12/26 10:34:44;;;;;;;8.15;1.00;;;21.40;99.90;;;;;;5048869;28;20233;-74
2021/12/26 10:37:17;;;;;;;7.90;1.08;;;21.40;99.90;;;;;;5034777;28;20287;-74
2021/12/26 10:39:51;;;;;;;8.18;1.35;;;21.30;99.90;;;;;;5038867;28;20186;-74
2021/12/26 10:42:23;;;;;;;9.93;1.48;;;21.30;99.90;;;;;;5044566;28;20216;-75
2021/12/26 10:44:59;;;;;;;6.70;1.23;;;21.40;99.90;;;;;;5053786;28;20209;-74
2021/12/26 10:47:34;;;;;;;10.73;1.50;;;21.30;99.90;;;;;;5054003;28;20193;-74
2021/12/26 10:50:07;;;;;;;10.02;1.40;;;21.30;99.90;;;;;;5053215;28;20559;-75
2021/12/26 10:52:41;;;;;;;7.55;1.50;;;21.30;99.90;;;;;;5052778;28;20243;-74
2021/12/26 10:55:13;;;;;;;8.45;1.35;;;21.30;99.90;;;;;;5050880;28;20577;-75
2021/12/26 10:57:46;;;;;;;9.35;1.55;;;21.30;99.90;;;;;;5052539;28;20218;-76
2021/12/26 11:00:22;;;;;;;9.00;1.60;;;21.30;99.90;;;;;;5052522;28;20194;-76
2021/12/26 11:03:00;;;;;;;8.30;1.50;;;21.30;99.90;;;;;;5052403;28;20550;-77
2021/12/26 11:05:38;;;;;;;9.20;1.70;;;21.30;99.90;;;;;;5053788;28;20695;-76
2021/12/26 11:08:11;;;;;;;8.85;2.13;;;21.30;99.90;;;;;;5050002;28;20208;-76
2021/12/26 11:10:45;;;;;;;9.63;2.22;;;21.20;99.90;;;;;;5052734;28;20689;-73
2021/12/26 11:13:25;;;;;;;13.43;2.15;;;21.10;99.90;;;;;;5052079;28;20189;-74
2021/12/26 11:15:59;;;;;;;10.93;2.70;;;21.00;99.90;;;;;;5049802;28;20194;-73
2021/12/26 11:18:32;;;;;;;9.80;2.00;;;20.90;99.90;;;;;;5052970;28;20674;-73
2021/12/26 11:21:06;;;;;;;9.25;2.40;;;20.90;99.90;;;;;;5052295;28;20190;-73
2021/12/26 11:23:40;;;;;;;8.88;2.28;;;20.80;99.90;;;;;;5052969;28;20189;-73
2021/12/26 11:26:12;;;;;;;7.28;1.98;;;20.70;99.90;;;;;;5052660;28;20194;-73
2021/12/26 11:28:44;;;;;;;13.38;2.20;;;20.60;99.90;;;;;;5062240;28;20201;-74
2021/12/26 11:31:17;;;;;;;9.25;2.47;;;20.50;99.90;;;;;;5051923;28;20217;-73
2021/12/26 11:33:55;;;;;;;10.15;2.17;;;20.50;99.90;;;;;;5052631;28;20193;-74
2021/12/26 11:36:29;;;;;;;10.68;2.20;;;20.40;99.90;;;;;;5050767;28;20192;-74
2021/12/26 11:39:06;;;;;;;8.93;2.10;;;20.30;99.90;;;;;;5052985;28;20657;-73
2021/12/26 11:41:44;;;;;;;7.07;1.80;;;20.20;99.90;;;;;;5052772;28;20227;-74
2021/12/26 11:44:36;;;;;;;7.65;1.90;;;20.10;99.90;;;;;;5044702;28;20193;-73
2021/12/26 11:47:41;;;;;;;7.03;1.70;;;20.00;99.90;;;;;;5043354;28;20201;-73
2021/12/26 11:50:30;;;;;;;10.90;1.80;;;19.90;99.90;;;;;;5051748;28;20575;-74
2021/12/26 11:53:16;;;;;;;6.93;1.65;;;19.90;99.90;;;;;;5033127;28;20201;-74
2021/12/26 11:55:57;;;;;;;10.20;2.20;;;19.80;99.90;;;;;;5050323;28;20213;-73
2021/12/26 11:58:42;;;;;;;12.65;2.00;;;19.80;99.90;;;;;;5052580;28;20193;-73
2021/12/26 12:01:17;;;;;;;13.82;1.88;;;19.70;99.90;;;;;;5053082;28;20267;-73
2021/12/26 12:03:49;;;;;;;9.52;1.67;;;19.80;99.90;;;;;;5053066;28;20251;-73
2021/12/26 12:06:39;;;;;;;10.00;2.42;;;19.80;99.90;;;;;;5052857;28;20185;-73
2021/12/26 12:09:27;;;;;;;9.20;2.00;;;19.80;99.90;;;;;;5052480;28;20197;-73
2021/12/26 12:12:03;;;;;;;12.13;2.25;;;19.80;99.90;;;;;;5052060;28;20255;-73
2021/12/26 12:14:54;;;;;;;9.23;2.00;;;19.80;99.90;;;;;;5052232;28;20185;-73
2021/12/26 12:17:27;;;;;;;8.52;1.83;;;19.70;99.90;;;;;;5051646;28;20245;-73
2021/12/26 12:20:17;;;;;;;14.10;2.10;;;19.70;99.90;;;;;;5040746;28;20190;-73
2021/12/26 12:23:25;;;;;;;10.43;2.20;;;19.80;99.90;;;;;;5040980;28;20244;-73
2021/12/26 12:25:56;;;;;;;14.70;2.03;;;19.80;99.90;;;;;;5052613;28;20197;-73
2021/12/26 12:28:32;;;;;;;17.70;2.38;;;19.70;99.90;;;;;;5052298;28;20194;-75
2021/12/26 12:31:22;;;;;;;12.73;2.08;;;19.70;99.90;;;;;;5052921;28;20217;-75
2021/12/26 12:34:08;;;;;;;10.45;2.15;;;19.70;99.90;;;;;;5056745;28;20570;-75
2021/12/26 12:37:02;;;;;;;7.75;1.77;;;19.70;99.90;;;;;;5056168;28;20193;-74
2021/12/26 12:39:37;;;;;;;10.93;1.77;;;19.80;99.90;;;;;;5053477;28;20194;-73
2021/12/26 12:42:20;;;;;;;8.90;1.55;;;19.70;99.90;;;;;;5054722;28;20217;-74
2021/12/26 12:45:01;;;;;;;14.07;1.90;;;19.70;99.90;;;;;;5053854;28;20200;-75
2021/12/26 12:47:34;;;;;;;8.85;1.67;;;19.60;99.90;;;;;;5055537;28;20197;-74
2021/12/26 12:50:09;;;;;;;9.82;1.73;;;19.60;99.90;;;;;;5047170;28;20206;-74
2021/12/26 12:52:45;;;;;;;14.82;2.15;;;19.60;99.90;;;;;;5055081;28;20200;-75
2021/12/26 12:55:19;;;;;;;9.52;1.98;;;19.60;99.90;;;;;;5055359;28;20194;-74
2021/12/26 12:57:51;;;;;;;11.15;2.38;;;19.60;99.90;;;;;;5045003;28;20216;-75
2021/12/26 13:00:45;;;;;;;14.98;2.20;;;19.70;99.90;;;;;;5054675;28;20276;-74
2021/12/26 13:03:21;;;;;;;8.77;1.95;;;19.70;99.90;;;;;;5055822;28;20197;-73
2021/12/26 13:05:53;;;;;;;11.38;2.05;;;19.70;99.90;;;;;;5055752;28;20192;-74
2021/12/26 13:08:25;;;;;;;9.05;1.80;;;19.70;99.90;;;;;;5049639;28;20251;-75
2021/12/26 13:10:59;;;;;;;8.05;1.70;;;19.70;99.90;;;;;;5054997;28;20672;-74
2021/12/26 13:13:30;;;;;;;11.85;1.73;;;19.60;99.90;;;;;;5055514;28;20190;-74
2021/12/26 13:16:02;;;;;;;11.85;1.90;;;19.50;99.90;;;;;;5054581;28;20190;-73
2021/12/26 13:18:35;;;;;;;8.07;2.10;;;19.50;99.90;;;;;;5053880;28;20189;-73
2021/12/26 13:21:09;;;;;;;7.40;1.55;;;19.40;99.90;;;;;;5054851;28;20204;-73
2021/12/26 13:23:43;;;;;;;8.02;1.70;;;19.40;99.90;;;;;;5054245;28;20212;-74
2021/12/26 13:26:15;;;;;;;12.05;2.05;;;19.40;99.90;;;;;;5054336;28;20204;-73
2021/12/26 13:28:46;;;;;;;8.93;1.48;;;19.40;99.90;;;;;;5055429;28;20193;-73
2021/12/26 13:31:18;;;;;;;8.63;1.52;;;19.40;99.90;;;;;;5054842;28;20224;-73
2021/12/26 13:33:55;;;;;;;9.13;1.65;;;19.40;99.90;;;;;;5055288;28;20190;-73
2021/12/26 13:36:27;;;;;;;11.68;1.95;;;19.40;99.90;;;;;;5054835;28;20195;-73